Port Wash, New York
Current Conditions -  °F | °C
As of 4:20 AM on Wednesday 22 Oct 2014 (Local Time) from KLGA Reporting Station
Moderate Rain Moderate Rain  
Wind Chill: 57°   Ceiling: 900
Heat Index: 57°   Visibility: 6mi
Dew Point: 55°   Wind: 13mph
Humidity: 94%   Direction: 70°ENE
Pressure: 29.88"   Gusts: NA
Location:  40.8387°N, 73.6912°W
Report Text: KLGA 220820Z 07011KT 6SM RA BR BKN009 OVC012 14/13 A2988 RMK AO2 TSE19 P0007
Loading
Personal Weather Stations






























Interactive Weather Map New forecast layout! Learn more

10-Day Weather Forecast

Advertisements
Track Severe Weather on mobile